createdAt,value
2023-02-13T00:00:38.557Z,17.03
2023-02-13T00:05:36.931Z,17.90
2023-02-13T00:08:03.580Z,16.47
2023-02-13T00:10:30.121Z,15.63
2023-02-13T00:12:56.701Z,18.13
2023-02-13T00:15:23.293Z,15.63
2023-02-13T00:17:50.081Z,15.03
2023-02-13T00:20:16.668Z,16.23
2023-02-13T00:22:43.241Z,17.30
2023-02-13T00:25:09.944Z,15.17
2023-02-13T00:27:36.609Z,15.43
2023-02-13T00:30:04.550Z,14.93
2023-02-13T00:32:31.731Z,15.87
2023-02-13T00:34:58.434Z,14.37
2023-02-13T00:37:25.638Z,15.93
2023-02-13T00:39:52.492Z,13.50
2023-02-13T00:42:20.441Z,14.17
2023-02-13T00:44:47.003Z,15.13
2023-02-13T00:49:46.144Z,15.17
2023-02-13T00:52:13.174Z,15.70
2023-02-13T00:54:39.729Z,14.07
2023-02-13T00:57:06.300Z,14.77
2023-02-13T00:59:32.891Z,14.40
2023-02-13T01:01:59.433Z,14.17
2023-02-13T01:04:26.062Z,15.33
2023-02-13T01:06:52.605Z,14.23
2023-02-13T01:09:19.127Z,13.83
2023-02-13T01:11:45.673Z,14.03
2023-02-13T01:14:12.299Z,14.67
2023-02-13T01:16:38.989Z,14.80
2023-02-13T01:19:05.604Z,14.53
2023-02-13T01:21:32.184Z,12.57
2023-02-13T01:24:02.448Z,12.73
2023-02-13T01:26:29.034Z,13.57
2023-02-13T01:28:57.617Z,14.20
2023-02-13T01:31:24.499Z,13.57
2023-02-13T01:44:02.292Z,12.37
2023-02-13T02:04:52.808Z,11.03
2023-02-13T02:29:52.823Z,11.13
2023-02-13T02:50:22.695Z,10.80
2023-02-13T02:59:02.263Z,10.53
2023-02-13T03:07:22.356Z,10.50
2023-02-13T03:57:12.314Z,9.60
2023-02-13T04:33:47.154Z,8.00
2023-02-13T04:36:13.737Z,9.07
2023-02-13T04:38:40.367Z,7.83
2023-02-13T04:41:06.956Z,8.57
2023-02-13T04:43:33.554Z,8.37
2023-02-13T04:46:00.175Z,7.10
2023-02-13T04:48:26.910Z,6.83
2023-02-13T04:50:53.543Z,7.67
2023-02-13T04:53:20.152Z,7.97
2023-02-13T04:55:46.723Z,8.57
2023-02-13T04:58:13.341Z,9.00
2023-02-13T05:00:39.896Z,8.50
2023-02-13T05:03:08.800Z,7.67
2023-02-13T05:05:36.040Z,7.77
2023-02-13T05:08:02.699Z,7.70
2023-02-13T05:10:29.534Z,7.37
2023-02-13T05:12:56.382Z,8.47
2023-02-13T05:15:23.535Z,7.30
2023-02-13T05:17:50.356Z,7.47
2023-02-13T05:20:17.404Z,7.33
2023-02-13T05:23:03.973Z,8.87
2023-02-13T05:25:30.628Z,7.20
2023-02-13T05:27:57.274Z,7.43
2023-02-13T05:30:24.364Z,7.10
2023-02-13T05:35:23.771Z,6.67
2023-02-13T05:37:50.875Z,8.20
2023-02-13T05:40:17.763Z,7.47
2023-02-13T05:42:44.391Z,6.90
2023-02-13T05:45:11.024Z,7.63
2023-02-13T05:47:37.683Z,7.07
2023-02-13T05:50:04.672Z,7.53
2023-02-13T05:52:31.238Z,7.07
2023-02-13T05:54:57.807Z,5.73
2023-02-13T05:57:24.395Z,7.20
2023-02-13T05:59:50.954Z,8.07
2023-02-13T06:02:17.588Z,6.33
2023-02-13T06:04:44.191Z,5.87
2023-02-13T06:07:10.712Z,7.43
2023-02-13T06:09:37.406Z,7.10
2023-02-13T06:12:04.461Z,7.77
2023-02-13T06:14:31.080Z,6.50
2023-02-13T06:16:57.689Z,8.63
2023-02-13T06:19:24.271Z,7.27
2023-02-13T06:21:50.881Z,6.50
2023-02-13T06:24:17.486Z,5.90
2023-02-13T06:26:44.405Z,5.83
2023-02-13T06:29:12.599Z,7.30
2023-02-13T06:31:39.556Z,6.83
2023-02-13T06:34:06.133Z,6.87
2023-02-13T06:36:32.681Z,7.20
2023-02-13T06:38:59.216Z,7.20
2023-02-13T06:41:25.803Z,6.20
2023-02-13T06:43:52.356Z,6.97
2023-02-13T06:46:18.927Z,6.37
2023-02-13T06:48:45.443Z,6.93
2023-02-13T06:53:43.495Z,6.13
2023-02-13T06:56:11.126Z,7.13
2023-02-13T07:01:12.358Z,5.53
2023-02-13T07:13:53.051Z,6.13
2023-02-13T07:21:22.632Z,7.63
2023-02-13T07:29:05.673Z,6.60
2023-02-13T07:36:39.969Z,5.40
2023-02-13T07:39:06.608Z,5.40
2023-02-13T07:41:33.198Z,6.67
2023-02-13T07:43:59.735Z,5.30
2023-02-13T07:46:26.314Z,6.10
2023-02-13T07:48:53.344Z,5.50
2023-02-13T07:51:20.002Z,5.87
2023-02-13T07:53:46.766Z,5.27
2023-02-13T07:56:13.328Z,6.23
2023-02-13T08:01:15.659Z,6.67
2023-02-13T08:03:42.898Z,6.20
2023-02-13T08:06:09.604Z,5.80
2023-02-13T08:08:36.392Z,6.47
2023-02-13T08:11:26.034Z,5.07
2023-02-13T08:13:52.602Z,5.57
2023-02-13T08:16:19.369Z,4.80
2023-02-13T08:18:46.009Z,5.80
2023-02-13T08:21:14.847Z,5.50
2023-02-13T08:26:12.938Z,5.83
2023-02-13T08:28:39.614Z,4.90
2023-02-13T08:33:42.880Z,5.60
2023-02-13T08:41:12.834Z,5.10
2023-02-13T08:48:42.449Z,5.23
2023-02-13T09:03:52.834Z,5.33
2023-02-13T09:11:23.357Z,4.87
2023-02-13T09:13:53.374Z,4.93
2023-02-13T09:18:52.479Z,5.33
2023-02-13T10:06:32.334Z,4.43
2023-02-13T10:12:22.903Z,4.53
2023-02-13T11:58:14.042Z,4.10
2023-02-13T12:14:14.563Z,4.03
2023-02-13T12:16:47.279Z,4.33
2023-02-13T12:19:20.235Z,4.13
2023-02-13T12:22:14.943Z,5.20
2023-02-13T12:28:22.530Z,3.77
2023-02-13T12:33:56.630Z,3.80
2023-02-13T12:50:23.287Z,4.53
2023-02-13T12:56:13.690Z,3.57
2023-02-13T12:58:52.226Z,4.27
2023-02-13T13:01:35.182Z,3.73
2023-02-13T13:07:12.721Z,4.30
2023-02-13T13:10:14.254Z,4.97
2023-02-13T13:13:28.097Z,4.20
2023-02-13T13:16:05.805Z,3.77
2023-02-13T13:19:02.524Z,3.57
2023-02-13T13:21:38.006Z,4.13
2023-02-13T13:24:17.956Z,3.70
2023-02-13T13:26:50.469Z,3.60
2023-02-13T13:29:26.423Z,5.23
2023-02-13T13:31:58.501Z,3.67
2023-02-13T13:34:26.599Z,3.30
2023-02-13T13:37:07.042Z,3.97
2023-02-13T13:42:16.930Z,3.60
2023-02-13T13:44:49.437Z,4.33
2023-02-13T13:47:53.960Z,4.87
2023-02-13T13:50:29.784Z,4.30
2023-02-13T13:53:19.153Z,3.17
2023-02-13T13:56:02.325Z,3.20
2023-02-13T13:58:46.532Z,3.87
2023-02-13T14:01:29.536Z,3.77
2023-02-13T14:04:04.450Z,4.03
2023-02-13T14:06:45.827Z,3.57
2023-02-13T14:09:27.722Z,4.27
2023-02-13T14:11:56.465Z,5.20
2023-02-13T14:14:30.286Z,3.27
2023-02-13T14:16:59.020Z,4.43
2023-02-13T14:19:39.884Z,3.80
2023-02-13T14:22:24.663Z,3.43
2023-02-13T14:24:53.444Z,3.67
2023-02-13T14:27:26.217Z,3.43
2023-02-13T14:29:53.004Z,3.67
2023-02-13T14:32:34.225Z,4.67
2023-02-13T14:35:04.688Z,4.47
2023-02-13T14:37:36.592Z,3.00
2023-02-13T14:40:48.259Z,3.17
2023-02-13T14:43:22.999Z,4.33
2023-02-13T14:46:23.597Z,2.93
2023-02-13T14:49:06.533Z,3.00
2023-02-13T14:51:40.274Z,3.07
2023-02-13T14:54:26.231Z,4.40
2023-02-13T14:56:58.359Z,3.53
2023-02-13T14:59:32.532Z,3.33
2023-02-13T15:02:17.311Z,3.20
2023-02-13T15:04:48.729Z,2.90
2023-02-13T15:07:23.526Z,2.90
2023-02-13T15:09:55.619Z,3.23
2023-02-13T15:12:32.309Z,3.00
2023-02-13T15:17:40.060Z,3.03
2023-02-13T15:20:12.596Z,3.23
2023-02-13T15:22:42.332Z,3.50
2023-02-13T15:25:09.531Z,2.87
2023-02-13T15:30:21.859Z,2.80
2023-02-13T15:32:58.817Z,3.40
2023-02-13T15:35:27.154Z,3.03
2023-02-13T15:37:54.854Z,3.07
2023-02-13T15:40:25.688Z,3.03
2023-02-13T15:42:53.058Z,3.10
2023-02-13T15:47:56.200Z,2.80
2023-02-13T15:58:14.334Z,2.93
2023-02-13T16:00:42.928Z,2.80
2023-02-13T16:03:16.864Z,2.90
2023-02-13T16:05:46.460Z,3.33
2023-02-13T16:08:27.526Z,5.03
2023-02-13T16:19:44.508Z,3.13
2023-02-13T16:22:25.860Z,3.27
2023-02-13T16:24:55.822Z,4.30
2023-02-13T16:27:27.160Z,2.37
2023-02-13T16:30:06.573Z,2.47
2023-02-13T16:41:03.941Z,2.60
2023-02-13T16:43:36.820Z,3.13
2023-02-13T16:46:15.560Z,3.20
2023-02-13T16:57:15.257Z,2.60
2023-02-13T17:04:54.936Z,2.50
2023-02-13T17:10:23.690Z,2.97
2023-02-13T17:20:33.487Z,2.70
2023-02-13T17:23:05.920Z,2.73
2023-02-13T17:25:35.476Z,3.50
2023-02-13T17:33:25.861Z,19.10
2023-02-13T17:35:52.805Z,19.67
2023-02-13T17:40:46.648Z,14.87
2023-02-13T17:43:16.305Z,13.20
2023-02-13T17:45:43.639Z,15.00
2023-02-13T17:53:24.041Z,12.90
2023-02-13T17:58:22.512Z,15.53
2023-02-13T18:03:22.268Z,11.27
2023-02-13T18:10:52.832Z,10.40
2023-02-13T18:13:19.374Z,13.03
2023-02-13T18:43:43.633Z,9.23
2023-02-13T18:51:13.356Z,9.80
2023-02-13T18:56:12.254Z,8.73
2023-02-13T19:01:12.769Z,9.77
2023-02-13T19:06:14.388Z,7.47
2023-02-13T19:13:55.305Z,8.40
2023-02-13T19:16:22.700Z,7.37
2023-02-13T19:18:52.983Z,7.47
2023-02-13T19:21:25.008Z,9.60
2023-02-13T19:23:52.830Z,8.00
2023-02-13T19:26:22.860Z,7.97
2023-02-13T19:31:24.473Z,7.23
2023-02-13T19:36:25.212Z,8.67
2023-02-13T19:38:56.578Z,7.27
2023-02-13T19:41:23.862Z,9.13
2023-02-13T19:46:25.483Z,8.27
2023-02-13T19:48:52.600Z,9.93
2023-02-13T19:56:35.066Z,17.37
2023-02-13T20:01:33.456Z,10.13
2023-02-13T20:06:35.668Z,8.60
2023-02-13T20:09:06.057Z,11.73
2023-02-13T20:11:32.759Z,10.30
2023-02-13T20:14:05.224Z,9.43
2023-02-13T20:16:34.942Z,8.00
2023-02-13T20:19:06.855Z,8.90
2023-02-13T20:21:34.381Z,8.83
2023-02-13T20:24:03.017Z,7.07
2023-02-13T20:31:34.383Z,11.67
2023-02-13T20:36:33.479Z,12.07
2023-02-13T20:39:02.925Z,13.60
2023-02-13T20:41:33.357Z,13.10
2023-02-13T20:44:02.354Z,12.27
2023-02-13T20:46:33.672Z,15.03
2023-02-13T20:51:26.795Z,13.73
2023-02-13T20:53:54.492Z,15.03
2023-02-13T20:56:23.380Z,13.13
2023-02-13T21:01:25.865Z,11.73
2023-02-13T21:03:54.715Z,13.80
2023-02-13T21:06:23.536Z,14.77
2023-02-13T21:11:23.275Z,11.83
2023-02-13T21:16:25.262Z,9.47
2023-02-13T21:18:54.942Z,9.60
2023-02-13T21:21:22.730Z,11.07
2023-02-13T21:23:53.072Z,8.90
2023-02-13T21:28:52.437Z,9.37
2023-02-13T21:31:27.477Z,9.20
2023-02-13T21:33:56.552Z,9.20
2023-02-13T21:36:23.049Z,10.30
2023-02-13T21:43:53.007Z,8.97
2023-02-13T21:46:23.579Z,7.80
2023-02-13T21:48:58.620Z,9.50
2023-02-13T21:51:28.452Z,9.77
2023-02-13T21:53:55.363Z,9.23
2023-02-13T21:59:03.378Z,6.70
2023-02-13T22:01:35.824Z,6.07
2023-02-13T22:04:05.144Z,5.37
2023-02-13T22:06:34.868Z,6.37
2023-02-13T22:09:02.902Z,6.23
2023-02-13T22:11:30.503Z,5.60
2023-02-13T22:14:01.498Z,5.93
2023-02-13T22:16:32.587Z,6.63
2023-02-13T22:18:59.734Z,6.90
2023-02-13T22:21:28.855Z,5.60
2023-02-13T22:23:55.563Z,7.47
2023-02-13T22:26:25.045Z,5.93
2023-02-13T22:28:52.512Z,5.50
2023-02-13T22:31:19.912Z,6.67
2023-02-13T22:33:52.315Z,7.30
2023-02-13T22:36:25.650Z,6.40
2023-02-13T22:38:52.755Z,6.07
2023-02-13T22:41:22.631Z,6.13
2023-02-13T22:43:50.110Z,8.60
2023-02-13T22:46:23.107Z,4.83
2023-02-13T22:48:52.217Z,4.70
2023-02-13T22:51:24.951Z,6.97
2023-02-13T22:53:56.116Z,6.43
2023-02-13T22:56:23.727Z,4.90
2023-02-13T22:58:50.571Z,5.43
2023-02-13T23:01:23.297Z,6.40
2023-02-13T23:03:49.919Z,4.83
2023-02-13T23:06:17.656Z,5.43
2023-02-13T23:08:44.527Z,4.93
2023-02-13T23:11:32.839Z,4.73
2023-02-13T23:13:59.612Z,5.00
2023-02-13T23:16:26.737Z,4.93
2023-02-13T23:18:57.205Z,4.80
2023-02-13T23:21:25.310Z,5.07
2023-02-13T23:23:52.246Z,5.20
2023-02-13T23:26:19.547Z,4.33
2023-02-13T23:28:46.100Z,5.33
2023-02-13T23:31:12.765Z,4.60
2023-02-13T23:33:39.467Z,5.10
2023-02-13T23:36:06.594Z,7.17
2023-02-13T23:38:33.307Z,4.80
2023-02-13T23:41:09.130Z,6.00
2023-02-13T23:43:36.258Z,5.97
2023-02-13T23:46:04.480Z,5.27
2023-02-13T23:51:03.070Z,5.83
2023-02-13T23:53:29.692Z,5.00
2023-02-13T23:55:56.316Z,4.57
2023-02-13T23:58:23.183Z,4.80
